Pagrindinis puslapis
METAR-TAF:

METAR-TAF

Oro uostai :

Kiruna, Švedija

platuma: 67-49N, ilguma: 020-20E, Aukštis: 452 m

Dabartinis oras

Ataskaita buvo paskelbta 39 minutes, ne 17:20 UTC
Vėjas 10 kt iš Pietų/Pietvakarių
Temperatūra 4°C
Drėgmė 65%
Slėgis 1015 hPa
Matomumas 10 km arba daugiau

METAR: ESNQ 171720Z AUTO 21010KT 9999 FEW047/// 04/M02 Q1015

Laikas: 19:59 (17:59 UTC)

Prognozė

Ataskaita buvo paskelbta 3 valandos ir 29 minutes, ne 14:30 UTC
Prognozė galioja nuo 17 metu 15 UTC su 17 metu 17 UTC
Vėjas 10 kt iš Pietų/Pietvakarių
Matomumas 10 km arba daugiau
Su prošvaistėmis ne aukštis 4000 ft
Laikinai
nuo 17 metu 15 UTC su 17 metu 17 UTC
Matomumas: 3000 m
sniegas

TAF: ESNQ 171430Z 1715/1717 21010KT 9999 BKN040 TEMPO 1715/1717 3000 -SN

Orai ataskaitas ir orų prognozės (METAR, TAF).

turimą stotys yra geltonos ir raudonos taškus žemėlapyje.

Perkelti pele per norėdami pamatyti stoties vardą.

Tada spustelėkite, norėdami matyti oro stebėjimo ir prognozės.

Norėdami pakeisti žemėlapį: spustelėkite ant žalios mygtukų su juodo kryžiaus žemyn,; žalią mygtuką su brūkšneliu, jei norite nutolinti; arba žalių rodyklių gretimoms žemėlapius.


METAR-TAF: